sensor_id;sensor_type;location;lat;lon;timestamp;P1;durP1;ratioP1;P2;durP2;ratioP2
65174;SDS011;51761;42.126;24.752;2024-02-15T00:01:30;11.38;;;5.25;;
65174;SDS011;51761;42.126;24.752;2024-02-15T00:03:55;8.73;;;5.07;;
65174;SDS011;51761;42.126;24.752;2024-02-15T00:06:20;8.13;;;4.38;;
65174;SDS011;51761;42.126;24.752;2024-02-15T00:08:46;9.77;;;5.90;;
65174;SDS011;51761;42.126;24.752;2024-02-15T00:11:11;10.82;;;5.50;;
65174;SDS011;51761;42.126;24.752;2024-02-15T00:13:38;13.13;;;5.65;;
65174;SDS011;51761;42.126;24.752;2024-02-15T00:16:04;11.50;;;5.53;;
65174;SDS011;51761;42.126;24.752;2024-02-15T00:18:31;9.02;;;5.63;;
65174;SDS011;51761;42.126;24.752;2024-02-15T00:20:56;9.25;;;5.57;;
65174;SDS011;51761;42.126;24.752;2024-02-15T00:23:21;10.73;;;5.53;;
65174;SDS011;51761;42.126;24.752;2024-02-15T00:25:47;10.32;;;5.72;;
65174;SDS011;51761;42.126;24.752;2024-02-15T00:28:12;8.77;;;5.55;;
65174;SDS011;51761;42.126;24.752;2024-02-15T00:30:38;13.00;;;6.18;;
65174;SDS011;51761;42.126;24.752;2024-02-15T00:33:03;16.77;;;5.68;;
65174;SDS011;51761;42.126;24.752;2024-02-15T00:35:29;8.70;;;5.30;;
65174;SDS011;51761;42.126;24.752;2024-02-15T00:37:54;13.60;;;6.03;;
65174;SDS011;51761;42.126;24.752;2024-02-15T00:40:19;8.25;;;5.47;;
65174;SDS011;51761;42.126;24.752;2024-02-15T00:42:46;9.65;;;5.80;;
65174;SDS011;51761;42.126;24.752;2024-02-15T00:45:11;9.20;;;5.22;;
65174;SDS011;51761;42.126;24.752;2024-02-15T00:47:37;8.55;;;5.00;;
65174;SDS011;51761;42.126;24.752;2024-02-15T00:50:07;10.82;;;5.43;;
65174;SDS011;51761;42.126;24.752;2024-02-15T00:52:33;12.85;;;5.95;;
65174;SDS011;51761;42.126;24.752;2024-02-15T00:54:59;8.98;;;5.53;;
65174;SDS011;51761;42.126;24.752;2024-02-15T00:57:24;11.75;;;5.32;;
65174;SDS011;51761;42.126;24.752;2024-02-15T00:59:49;8.27;;;5.28;;
65174;SDS011;51761;42.126;24.752;2024-02-15T01:02:15;10.02;;;5.95;;
65174;SDS011;51761;42.126;24.752;2024-02-15T01:04:40;10.75;;;5.57;;
65174;SDS011;51761;42.126;24.752;2024-02-15T01:07:07;10.13;;;5.43;;
65174;SDS011;51761;42.126;24.752;2024-02-15T01:09:33;10.45;;;5.20;;
65174;SDS011;51761;42.126;24.752;2024-02-15T01:11:58;13.88;;;5.70;;
65174;SDS011;51761;42.126;24.752;2024-02-15T01:14:23;12.82;;;4.88;;
65174;SDS011;51761;42.126;24.752;2024-02-15T01:16:49;9.70;;;5.47;;
65174;SDS011;51761;42.126;24.752;2024-02-15T01:19:14;11.40;;;5.50;;
65174;SDS011;51761;42.126;24.752;2024-02-15T01:21:39;9.65;;;5.63;;
65174;SDS011;51761;42.126;24.752;2024-02-15T01:24:05;9.68;;;5.47;;
65174;SDS011;51761;42.126;24.752;2024-02-15T01:26:31;9.07;;;5.60;;
65174;SDS011;51761;42.126;24.752;2024-02-15T01:28:57;9.25;;;5.45;;
65174;SDS011;51761;42.126;24.752;2024-02-15T01:31:22;10.70;;;5.90;;
65174;SDS011;51761;42.126;24.752;2024-02-15T01:33:48;12.68;;;5.85;;
65174;SDS011;51761;42.126;24.752;2024-02-15T01:36:16;13.70;;;5.85;;
65174;SDS011;51761;42.126;24.752;2024-02-15T01:38:42;8.43;;;5.32;;
65174;SDS011;51761;42.126;24.752;2024-02-15T01:41:08;8.77;;;5.90;;
65174;SDS011;51761;42.126;24.752;2024-02-15T01:43:34;10.15;;;5.50;;
65174;SDS011;51761;42.126;24.752;2024-02-15T01:46:00;10.38;;;5.65;;
65174;SDS011;51761;42.126;24.752;2024-02-15T01:48:29;10.68;;;5.60;;
65174;SDS011;51761;42.126;24.752;2024-02-15T01:50:54;8.25;;;5.20;;
65174;SDS011;51761;42.126;24.752;2024-02-15T01:53:20;16.13;;;6.00;;
65174;SDS011;51761;42.126;24.752;2024-02-15T01:55:45;13.00;;;6.03;;
65174;SDS011;51761;42.126;24.752;2024-02-15T01:58:11;9.45;;;5.03;;
65174;SDS011;51761;42.126;24.752;2024-02-15T02:00:37;8.95;;;5.68;;
65174;SDS011;51761;42.126;24.752;2024-02-15T02:03:04;8.30;;;5.07;;
65174;SDS011;51761;42.126;24.752;2024-02-15T02:05:30;9.05;;;5.47;;
65174;SDS011;51761;42.126;24.752;2024-02-15T02:07:56;10.18;;;6.18;;
65174;SDS011;51761;42.126;24.752;2024-02-15T02:10:24;8.35;;;5.25;;
65174;SDS011;51761;42.126;24.752;2024-02-15T02:12:49;10.38;;;6.28;;
65174;SDS011;51761;42.126;24.752;2024-02-15T02:15:15;9.40;;;5.35;;
65174;SDS011;51761;42.126;24.752;2024-02-15T02:17:40;12.45;;;5.45;;
65174;SDS011;51761;42.126;24.752;2024-02-15T02:20:06;7.70;;;5.40;;
65174;SDS011;51761;42.126;24.752;2024-02-15T02:22:33;10.10;;;5.43;;
65174;SDS011;51761;42.126;24.752;2024-02-15T02:27:25;10.70;;;5.75;;
65174;SDS011;51761;42.126;24.752;2024-02-15T02:29:51;9.95;;;5.88;;
65174;SDS011;51761;42.126;24.752;2024-02-15T02:32:17;10.10;;;5.78;;
65174;SDS011;51761;42.126;24.752;2024-02-15T02:34:42;10.82;;;6.05;;
65174;SDS011;51761;42.126;24.752;2024-02-15T02:37:07;8.93;;;5.97;;
65174;SDS011;51761;42.126;24.752;2024-02-15T02:39:33;10.73;;;5.75;;
65174;SDS011;51761;42.126;24.752;2024-02-15T02:41:59;8.68;;;5.25;;
65174;SDS011;51761;42.126;24.752;2024-02-15T02:44:24;9.02;;;5.70;;
65174;SDS011;51761;42.126;24.752;2024-02-15T02:46:49;13.57;;;6.22;;
65174;SDS011;51761;42.126;24.752;2024-02-15T02:49:15;14.48;;;6.40;;
65174;SDS011;51761;42.126;24.752;2024-02-15T02:51:40;10.88;;;6.15;;
65174;SDS011;51761;42.126;24.752;2024-02-15T02:54:05;12.10;;;6.57;;
65174;SDS011;51761;42.126;24.752;2024-02-15T02:56:31;10.13;;;6.20;;
65174;SDS011;51761;42.126;24.752;2024-02-15T02:58:57;10.80;;;6.22;;
65174;SDS011;51761;42.126;24.752;2024-02-15T03:01:23;8.90;;;5.80;;
65174;SDS011;51761;42.126;24.752;2024-02-15T03:03:51;7.95;;;5.50;;
65174;SDS011;51761;42.126;24.752;2024-02-15T03:06:16;14.90;;;6.15;;
65174;SDS011;51761;42.126;24.752;2024-02-15T03:08:42;14.98;;;6.72;;
65174;SDS011;51761;42.126;24.752;2024-02-15T03:11:08;10.80;;;5.80;;
65174;SDS011;51761;42.126;24.752;2024-02-15T03:13:33;9.38;;;6.00;;
65174;SDS011;51761;42.126;24.752;2024-02-15T03:15:59;10.65;;;5.85;;
65174;SDS011;51761;42.126;24.752;2024-02-15T03:18:25;9.57;;;5.85;;
65174;SDS011;51761;42.126;24.752;2024-02-15T03:20:50;10.43;;;6.05;;
65174;SDS011;51761;42.126;24.752;2024-02-15T03:23:15;12.98;;;7.22;;
65174;SDS011;51761;42.126;24.752;2024-02-15T03:25:40;10.70;;;6.57;;
65174;SDS011;51761;42.126;24.752;2024-02-15T03:28:06;11.40;;;5.32;;
65174;SDS011;51761;42.126;24.752;2024-02-15T03:30:31;11.85;;;5.97;;
65174;SDS011;51761;42.126;24.752;2024-02-15T03:32:58;15.30;;;6.97;;
65174;SDS011;51761;42.126;24.752;2024-02-15T03:35:24;10.48;;;6.53;;
65174;SDS011;51761;42.126;24.752;2024-02-15T03:37:50;8.65;;;6.07;;
65174;SDS011;51761;42.126;24.752;2024-02-15T03:40:16;12.77;;;6.22;;
65174;SDS011;51761;42.126;24.752;2024-02-15T03:42:41;11.75;;;6.35;;
65174;SDS011;51761;42.126;24.752;2024-02-15T03:45:07;11.93;;;6.20;;
65174;SDS011;51761;42.126;24.752;2024-02-15T03:47:33;13.63;;;7.05;;
65174;SDS011;51761;42.126;24.752;2024-02-15T03:49:59;12.55;;;5.95;;
65174;SDS011;51761;42.126;24.752;2024-02-15T03:52:24;9.88;;;6.22;;
65174;SDS011;51761;42.126;24.752;2024-02-15T03:54:49;8.82;;;6.05;;
65174;SDS011;51761;42.126;24.752;2024-02-15T03:57:15;12.55;;;5.68;;
65174;SDS011;51761;42.126;24.752;2024-02-15T03:59:42;11.18;;;6.72;;
65174;SDS011;51761;42.126;24.752;2024-02-15T04:02:07;8.90;;;6.40;;
65174;SDS011;51761;42.126;24.752;2024-02-15T04:04:37;11.45;;;6.18;;
65174;SDS011;51761;42.126;24.752;2024-02-15T04:07:03;8.65;;;5.60;;
65174;SDS011;51761;42.126;24.752;2024-02-15T04:09:28;13.43;;;6.60;;
65174;SDS011;51761;42.126;24.752;2024-02-15T04:11:53;14.45;;;6.78;;
65174;SDS011;51761;42.126;24.752;2024-02-15T04:14:22;10.75;;;6.65;;
65174;SDS011;51761;42.126;24.752;2024-02-15T04:16:48;11.77;;;6.18;;
65174;SDS011;51761;42.126;24.752;2024-02-15T04:19:13;12.73;;;6.55;;
65174;SDS011;51761;42.126;24.752;2024-02-15T04:21:38;9.25;;;5.82;;
65174;SDS011;51761;42.126;24.752;2024-02-15T04:24:05;10.43;;;6.40;;
65174;SDS011;51761;42.126;24.752;2024-02-15T04:26:30;11.05;;;7.20;;
65174;SDS011;51761;42.126;24.752;2024-02-15T04:28:57;11.55;;;6.72;;
65174;SDS011;51761;42.126;24.752;2024-02-15T04:31:23;11.40;;;6.45;;
65174;SDS011;51761;42.126;24.752;2024-02-15T04:33:52;12.23;;;7.28;;
65174;SDS011;51761;42.126;24.752;2024-02-15T04:36:17;9.30;;;6.45;;
65174;SDS011;51761;42.126;24.752;2024-02-15T04:38:48;9.55;;;5.75;;
65174;SDS011;51761;42.126;24.752;2024-02-15T04:41:15;14.43;;;6.28;;
65174;SDS011;51761;42.126;24.752;2024-02-15T04:43:44;13.35;;;6.22;;
65174;SDS011;51761;42.126;24.752;2024-02-15T04:46:11;10.35;;;5.93;;
65174;SDS011;51761;42.126;24.752;2024-02-15T04:48:37;13.55;;;6.28;;
65174;SDS011;51761;42.126;24.752;2024-02-15T04:51:02;13.02;;;6.13;;
65174;SDS011;51761;42.126;24.752;2024-02-15T04:53:27;11.52;;;6.65;;
65174;SDS011;51761;42.126;24.752;2024-02-15T04:55:54;11.93;;;6.43;;
65174;SDS011;51761;42.126;24.752;2024-02-15T04:58:20;10.18;;;6.53;;
65174;SDS011;51761;42.126;24.752;2024-02-15T05:00:45;15.77;;;6.25;;
65174;SDS011;51761;42.126;24.752;2024-02-15T05:03:12;10.93;;;6.43;;
65174;SDS011;51761;42.126;24.752;2024-02-15T05:05:37;14.23;;;6.60;;
65174;SDS011;51761;42.126;24.752;2024-02-15T05:08:04;11.00;;;6.65;;
65174;SDS011;51761;42.126;24.752;2024-02-15T05:10:29;11.98;;;6.05;;
65174;SDS011;51761;42.126;24.752;2024-02-15T05:12:54;16.42;;;6.68;;
65174;SDS011;51761;42.126;24.752;2024-02-15T05:15:20;10.90;;;6.15;;
65174;SDS011;51761;42.126;24.752;2024-02-15T05:17:49;12.52;;;6.82;;
65174;SDS011;51761;42.126;24.752;2024-02-15T05:20:15;10.15;;;6.38;;
65174;SDS011;51761;42.126;24.752;2024-02-15T05:22:40;15.13;;;7.68;;
65174;SDS011;51761;42.126;24.752;2024-02-15T05:25:08;11.52;;;6.60;;
65174;SDS011;51761;42.126;24.752;2024-02-15T05:27:34;13.77;;;7.80;;
65174;SDS011;51761;42.126;24.752;2024-02-15T05:30:01;14.35;;;7.28;;
65174;SDS011;51761;42.126;24.752;2024-02-15T05:32:26;15.75;;;7.38;;
65174;SDS011;51761;42.126;24.752;2024-02-15T05:34:53;12.43;;;6.95;;
65174;SDS011;51761;42.126;24.752;2024-02-15T05:37:20;10.02;;;6.38;;
65174;SDS011;51761;42.126;24.752;2024-02-15T05:39:45;14.63;;;6.78;;
65174;SDS011;51761;42.126;24.752;2024-02-15T05:42:10;14.10;;;6.65;;
65174;SDS011;51761;42.126;24.752;2024-02-15T05:44:36;9.68;;;5.80;;
65174;SDS011;51761;42.126;24.752;2024-02-15T05:47:01;14.38;;;6.78;;
65174;SDS011;51761;42.126;24.752;2024-02-15T05:49:27;14.32;;;7.25;;
65174;SDS011;51761;42.126;24.752;2024-02-15T05:51:52;12.75;;;7.22;;
65174;SDS011;51761;42.126;24.752;2024-02-15T05:54:21;14.85;;;6.72;;
65174;SDS011;51761;42.126;24.752;2024-02-15T05:56:50;14.07;;;7.13;;
65174;SDS011;51761;42.126;24.752;2024-02-15T05:59:16;12.82;;;6.82;;
65174;SDS011;51761;42.126;24.752;2024-02-15T06:01:42;11.40;;;6.63;;
65174;SDS011;51761;42.126;24.752;2024-02-15T06:04:08;10.68;;;6.43;;
65174;SDS011;51761;42.126;24.752;2024-02-15T06:06:36;13.75;;;6.90;;
65174;SDS011;51761;42.126;24.752;2024-02-15T06:09:03;14.27;;;7.90;;
65174;SDS011;51761;42.126;24.752;2024-02-15T06:11:29;13.40;;;7.60;;
65174;SDS011;51761;42.126;24.752;2024-02-15T06:13:55;13.57;;;6.97;;
65174;SDS011;51761;42.126;24.752;2024-02-15T06:16:20;15.15;;;7.53;;
65174;SDS011;51761;42.126;24.752;2024-02-15T06:18:47;14.88;;;7.57;;
65174;SDS011;51761;42.126;24.752;2024-02-15T06:21:13;16.08;;;7.55;;
65174;SDS011;51761;42.126;24.752;2024-02-15T06:23:38;16.67;;;7.68;;
65174;SDS011;51761;42.126;24.752;2024-02-15T06:26:03;16.33;;;7.20;;
65174;SDS011;51761;42.126;24.752;2024-02-15T06:28:29;20.83;;;8.27;;
65174;SDS011;51761;42.126;24.752;2024-02-15T06:31:13;12.27;;;6.65;;
65174;SDS011;51761;42.126;24.752;2024-02-15T06:34:00;13.85;;;6.95;;
65174;SDS011;51761;42.126;24.752;2024-02-15T06:36:48;11.73;;;6.45;;
65174;SDS011;51761;42.126;24.752;2024-02-15T06:39:32;14.02;;;7.10;;
65174;SDS011;51761;42.126;24.752;2024-02-15T06:42:09;14.52;;;6.40;;
65174;SDS011;51761;42.126;24.752;2024-02-15T06:44:36;12.15;;;6.53;;
65174;SDS011;51761;42.126;24.752;2024-02-15T06:47:01;14.15;;;6.70;;
65174;SDS011;51761;42.126;24.752;2024-02-15T06:49:27;11.65;;;7.25;;
65174;SDS011;51761;42.126;24.752;2024-02-15T06:51:52;15.02;;;7.03;;
65174;SDS011;51761;42.126;24.752;2024-02-15T06:54:18;13.38;;;6.75;;
65174;SDS011;51761;42.126;24.752;2024-02-15T06:56:43;16.20;;;7.78;;
65174;SDS011;51761;42.126;24.752;2024-02-15T06:59:11;12.52;;;6.65;;
65174;SDS011;51761;42.126;24.752;2024-02-15T07:01:40;15.07;;;7.28;;
65174;SDS011;51761;42.126;24.752;2024-02-15T07:04:07;14.95;;;7.07;;
65174;SDS011;51761;42.126;24.752;2024-02-15T07:06:33;11.85;;;6.97;;
65174;SDS011;51761;42.126;24.752;2024-02-15T07:09:00;13.80;;;7.10;;
65174;SDS011;51761;42.126;24.752;2024-02-15T07:11:25;14.30;;;6.75;;
65174;SDS011;51761;42.126;24.752;2024-02-15T07:13:50;16.63;;;6.72;;
65174;SDS011;51761;42.126;24.752;2024-02-15T07:16:19;14.77;;;7.85;;
65174;SDS011;51761;42.126;24.752;2024-02-15T07:18:45;19.63;;;6.95;;
65174;SDS011;51761;42.126;24.752;2024-02-15T07:21:11;11.10;;;6.55;;
65174;SDS011;51761;42.126;24.752;2024-02-15T07:23:39;14.48;;;6.45;;
65174;SDS011;51761;42.126;24.752;2024-02-15T07:26:04;19.85;;;8.20;;
65174;SDS011;51761;42.126;24.752;2024-02-15T07:28:29;12.95;;;6.93;;
65174;SDS011;51761;42.126;24.752;2024-02-15T07:30:58;11.10;;;7.07;;
65174;SDS011;51761;42.126;24.752;2024-02-15T07:33:23;12.82;;;6.63;;
65174;SDS011;51761;42.126;24.752;2024-02-15T07:35:48;16.58;;;6.90;;
65174;SDS011;51761;42.126;24.752;2024-02-15T07:38:16;15.55;;;6.22;;
65174;SDS011;51761;42.126;24.752;2024-02-15T07:40:41;12.30;;;6.78;;
65174;SDS011;51761;42.126;24.752;2024-02-15T07:43:07;12.20;;;6.78;;
65174;SDS011;51761;42.126;24.752;2024-02-15T07:45:32;14.10;;;7.30;;
65174;SDS011;51761;42.126;24.752;2024-02-15T07:48:01;9.70;;;6.43;;
65174;SDS011;51761;42.126;24.752;2024-02-15T07:50:26;12.70;;;7.28;;
65174;SDS011;51761;42.126;24.752;2024-02-15T07:52:51;13.65;;;7.22;;
65174;SDS011;51761;42.126;24.752;2024-02-15T07:55:17;15.40;;;7.90;;
65174;SDS011;51761;42.126;24.752;2024-02-15T07:57:42;14.35;;;6.63;;
65174;SDS011;51761;42.126;24.752;2024-02-15T08:00:07;11.80;;;7.50;;
65174;SDS011;51761;42.126;24.752;2024-02-15T08:02:39;14.18;;;7.35;;
65174;SDS011;51761;42.126;24.752;2024-02-15T08:05:09;10.98;;;6.97;;
65174;SDS011;51761;42.126;24.752;2024-02-15T08:07:40;9.90;;;6.13;;
65174;SDS011;51761;42.126;24.752;2024-02-15T08:10:06;19.40;;;7.43;;
65174;SDS011;51761;42.126;24.752;2024-02-15T08:12:38;12.85;;;6.95;;
65174;SDS011;51761;42.126;24.752;2024-02-15T08:15:03;15.80;;;7.55;;
65174;SDS011;51761;42.126;24.752;2024-02-15T08:17:30;12.15;;;7.10;;
65174;SDS011;51761;42.126;24.752;2024-02-15T08:19:55;13.00;;;7.10;;
65174;SDS011;51761;42.126;24.752;2024-02-15T08:22:20;11.43;;;7.32;;
65174;SDS011;51761;42.126;24.752;2024-02-15T08:24:49;17.38;;;6.97;;
65174;SDS011;51761;42.126;24.752;2024-02-15T08:27:14;14.90;;;7.60;;
65174;SDS011;51761;42.126;24.752;2024-02-15T08:29:41;15.32;;;6.82;;
65174;SDS011;51761;42.126;24.752;2024-02-15T08:32:06;12.30;;;7.10;;
65174;SDS011;51761;42.126;24.752;2024-02-15T08:34:33;16.48;;;6.80;;
65174;SDS011;51761;42.126;24.752;2024-02-15T08:36:58;11.38;;;6.70;;
65174;SDS011;51761;42.126;24.752;2024-02-15T08:39:23;11.00;;;6.60;;
65174;SDS011;51761;42.126;24.752;2024-02-15T08:41:50;9.55;;;6.40;;
65174;SDS011;51761;42.126;24.752;2024-02-15T08:44:15;13.48;;;6.70;;
65174;SDS011;51761;42.126;24.752;2024-02-15T08:46:44;14.50;;;7.07;;
65174;SDS011;51761;42.126;24.752;2024-02-15T08:49:09;11.23;;;6.45;;
65174;SDS011;51761;42.126;24.752;2024-02-15T08:51:37;11.45;;;6.80;;
65174;SDS011;51761;42.126;24.752;2024-02-15T08:54:02;10.40;;;6.30;;
65174;SDS011;51761;42.126;24.752;2024-02-15T08:56:28;10.35;;;6.68;;
65174;SDS011;51761;42.126;24.752;2024-02-15T08:58:54;11.60;;;5.90;;
65174;SDS011;51761;42.126;24.752;2024-02-15T09:01:19;17.70;;;6.72;;
65174;SDS011;51761;42.126;24.752;2024-02-15T09:03:44;18.05;;;6.53;;
65174;SDS011;51761;42.126;24.752;2024-02-15T09:06:10;12.80;;;6.75;;
65174;SDS011;51761;42.126;24.752;2024-02-15T09:08:36;13.50;;;7.30;;
65174;SDS011;51761;42.126;24.752;2024-02-15T09:11:01;15.48;;;6.80;;
65174;SDS011;51761;42.126;24.752;2024-02-15T09:13:26;10.50;;;5.95;;
65174;SDS011;51761;42.126;24.752;2024-02-15T09:15:52;12.07;;;7.28;;
65174;SDS011;51761;42.126;24.752;2024-02-15T09:18:17;14.00;;;7.03;;
65174;SDS011;51761;42.126;24.752;2024-02-15T09:20:43;11.55;;;6.28;;
65174;SDS011;51761;42.126;24.752;2024-02-15T09:23:10;9.52;;;6.60;;
65174;SDS011;51761;42.126;24.752;2024-02-15T09:25:40;13.40;;;5.97;;
65174;SDS011;51761;42.126;24.752;2024-02-15T09:28:08;15.05;;;7.13;;
65174;SDS011;51761;42.126;24.752;2024-02-15T09:30:33;11.45;;;6.00;;
65174;SDS011;51761;42.126;24.752;2024-02-15T09:33:00;13.75;;;6.35;;
65174;SDS011;51761;42.126;24.752;2024-02-15T09:35:26;11.27;;;6.45;;
65174;SDS011;51761;42.126;24.752;2024-02-15T09:37:51;10.75;;;7.18;;
65174;SDS011;51761;42.126;24.752;2024-02-15T09:40:18;12.50;;;6.50;;
65174;SDS011;51761;42.126;24.752;2024-02-15T09:42:44;12.68;;;6.88;;
65174;SDS011;51761;42.126;24.752;2024-02-15T09:45:10;16.33;;;7.00;;
65174;SDS011;51761;42.126;24.752;2024-02-15T09:47:36;11.05;;;6.70;;
65174;SDS011;51761;42.126;24.752;2024-02-15T09:50:02;12.90;;;7.03;;
65174;SDS011;51761;42.126;24.752;2024-02-15T09:52:31;13.55;;;6.78;;
65174;SDS011;51761;42.126;24.752;2024-02-15T09:54:57;14.27;;;6.60;;
65174;SDS011;51761;42.126;24.752;2024-02-15T09:57:23;11.23;;;5.90;;
65174;SDS011;51761;42.126;24.752;2024-02-15T09:59:49;9.32;;;6.13;;
65174;SDS011;51761;42.126;24.752;2024-02-15T10:02:15;15.00;;;7.25;;
65174;SDS011;51761;42.126;24.752;2024-02-15T10:04:40;11.45;;;5.55;;
65174;SDS011;51761;42.126;24.752;2024-02-15T10:07:06;13.35;;;6.13;;
65174;SDS011;51761;42.126;24.752;2024-02-15T10:09:34;10.13;;;6.45;;
65174;SDS011;51761;42.126;24.752;2024-02-15T10:12:02;12.88;;;6.10;;
65174;SDS011;51761;42.126;24.752;2024-02-15T10:14:28;9.95;;;6.05;;
65174;SDS011;51761;42.126;24.752;2024-02-15T10:16:54;9.32;;;5.90;;
65174;SDS011;51761;42.126;24.752;2024-02-15T10:19:20;10.65;;;6.50;;
65174;SDS011;51761;42.126;24.752;2024-02-15T10:21:52;11.25;;;6.22;;
65174;SDS011;51761;42.126;24.752;2024-02-15T10:24:20;9.98;;;6.25;;
65174;SDS011;51761;42.126;24.752;2024-02-15T10:26:48;11.18;;;5.93;;
65174;SDS011;51761;42.126;24.752;2024-02-15T10:29:13;9.68;;;6.05;;
65174;SDS011;51761;42.126;24.752;2024-02-15T10:31:40;11.38;;;5.93;;
65174;SDS011;51761;42.126;24.752;2024-02-15T10:34:16;11.88;;;5.93;;
65174;SDS011;51761;42.126;24.752;2024-02-15T10:36:44;9.32;;;5.60;;
65174;SDS011;51761;42.126;24.752;2024-02-15T10:41:52;9.55;;;5.82;;
65174;SDS011;51761;42.126;24.752;2024-02-15T10:44:21;10.02;;;5.68;;
65174;SDS011;51761;42.126;24.752;2024-02-15T10:46:47;10.88;;;6.28;;
65174;SDS011;51761;42.126;24.752;2024-02-15T10:51:44;11.57;;;5.90;;
65174;SDS011;51761;42.126;24.752;2024-02-15T10:54:15;10.82;;;5.45;;
65174;SDS011;51761;42.126;24.752;2024-02-15T10:56:43;9.82;;;6.00;;
65174;SDS011;51761;42.126;24.752;2024-02-15T10:59:20;9.05;;;5.50;;
65174;SDS011;51761;42.126;24.752;2024-02-15T11:01:49;12.80;;;5.40;;
65174;SDS011;51761;42.126;24.752;2024-02-15T11:04:18;9.80;;;4.95;;
65174;SDS011;51761;42.126;24.752;2024-02-15T11:06:46;9.80;;;5.00;;
65174;SDS011;51761;42.126;24.752;2024-02-15T11:09:14;10.90;;;5.50;;
65174;SDS011;51761;42.126;24.752;2024-02-15T11:11:40;10.13;;;5.32;;
65174;SDS011;51761;42.126;24.752;2024-02-15T11:16:50;8.57;;;5.43;;
65174;SDS011;51761;42.126;24.752;2024-02-15T11:21:59;10.48;;;4.72;;
65174;SDS011;51761;42.126;24.752;2024-02-15T11:24:29;13.25;;;5.78;;
65174;SDS011;51761;42.126;24.752;2024-02-15T11:27:01;12.27;;;5.32;;
65174;SDS011;51761;42.126;24.752;2024-02-15T11:32:38;10.10;;;4.57;;
65174;SDS011;51761;42.126;24.752;2024-02-15T11:40:13;7.25;;;4.20;;
65174;SDS011;51761;42.126;24.752;2024-02-15T11:42:38;6.32;;;4.32;;
65174;SDS011;51761;42.126;24.752;2024-02-15T11:45:05;6.53;;;4.25;;
65174;SDS011;51761;42.126;24.752;2024-02-15T11:47:38;5.57;;;4.20;;
65174;SDS011;51761;42.126;24.752;2024-02-15T11:50:07;7.97;;;4.53;;
65174;SDS011;51761;42.126;24.752;2024-02-15T11:52:33;7.97;;;4.40;;
65174;SDS011;51761;42.126;24.752;2024-02-15T11:55:08;6.80;;;4.57;;
65174;SDS011;51761;42.126;24.752;2024-02-15T11:57:53;7.53;;;4.90;;
65174;SDS011;51761;42.126;24.752;2024-02-15T12:00:25;18.98;;;4.80;;
65174;SDS011;51761;42.126;24.752;2024-02-15T12:03:20;9.18;;;5.03;;
65174;SDS011;51761;42.126;24.752;2024-02-15T12:06:04;7.97;;;4.47;;
65174;SDS011;51761;42.126;24.752;2024-02-15T12:08:48;8.00;;;5.15;;
65174;SDS011;51761;42.126;24.752;2024-02-15T12:11:32;6.93;;;4.55;;
65174;SDS011;51761;42.126;24.752;2024-02-15T12:17:19;6.70;;;4.18;;
65174;SDS011;51761;42.126;24.752;2024-02-15T12:20:03;12.47;;;4.30;;
65174;SDS011;51761;42.126;24.752;2024-02-15T12:22:35;6.65;;;3.90;;
65174;SDS011;51761;42.126;24.752;2024-02-15T12:25:05;10.00;;;4.82;;
65174;SDS011;51761;42.126;24.752;2024-02-15T12:27:43;7.93;;;4.03;;
65174;SDS011;51761;42.126;24.752;2024-02-15T12:30:17;9.35;;;4.20;;
65174;SDS011;51761;42.126;24.752;2024-02-15T12:32:46;5.70;;;4.05;;
65174;SDS011;51761;42.126;24.752;2024-02-15T12:35:21;8.27;;;3.83;;
65174;SDS011;51761;42.126;24.752;2024-02-15T12:42:50;7.63;;;4.65;;
65174;SDS011;51761;42.126;24.752;2024-02-15T12:45:18;5.75;;;4.00;;
65174;SDS011;51761;42.126;24.752;2024-02-15T12:47:52;7.00;;;4.22;;
65174;SDS011;51761;42.126;24.752;2024-02-15T12:50:18;7.57;;;4.07;;
65174;SDS011;51761;42.126;24.752;2024-02-15T12:52:45;9.98;;;4.97;;
65174;SDS011;51761;42.126;24.752;2024-02-15T12:55:19;7.03;;;4.10;;
65174;SDS011;51761;42.126;24.752;2024-02-15T12:57:54;9.20;;;4.45;;
65174;SDS011;51761;42.126;24.752;2024-02-15T13:00:21;8.70;;;4.28;;
65174;SDS011;51761;42.126;24.752;2024-02-15T13:02:47;4.85;;;3.63;;
65174;SDS011;51761;42.126;24.752;2024-02-15T13:05:14;5.85;;;4.00;;
65174;SDS011;51761;42.126;24.752;2024-02-15T13:07:40;9.25;;;4.22;;
65174;SDS011;51761;42.126;24.752;2024-02-15T13:10:05;11.80;;;4.47;;
65174;SDS011;51761;42.126;24.752;2024-02-15T13:12:34;8.50;;;4.72;;
65174;SDS011;51761;42.126;24.752;2024-02-15T13:15:00;7.88;;;4.70;;
65174;SDS011;51761;42.126;24.752;2024-02-15T13:17:28;8.50;;;4.45;;
65174;SDS011;51761;42.126;24.752;2024-02-15T13:19:53;6.70;;;3.80;;
65174;SDS011;51761;42.126;24.752;2024-02-15T13:22:27;7.32;;;3.63;;
65174;SDS011;51761;42.126;24.752;2024-02-15T13:24:52;11.20;;;4.18;;
65174;SDS011;51761;42.126;24.752;2024-02-15T13:27:20;7.80;;;4.25;;
65174;SDS011;51761;42.126;24.752;2024-02-15T13:29:46;7.53;;;4.28;;
65174;SDS011;51761;42.126;24.752;2024-02-15T13:32:12;8.82;;;3.50;;
65174;SDS011;51761;42.126;24.752;2024-02-15T13:34:39;6.68;;;4.13;;
65174;SDS011;51761;42.126;24.752;2024-02-15T13:37:05;6.80;;;4.05;;
65174;SDS011;51761;42.126;24.752;2024-02-15T13:39:30;4.47;;;3.58;;
65174;SDS011;51761;42.126;24.752;2024-02-15T13:41:59;6.53;;;3.88;;
65174;SDS011;51761;42.126;24.752;2024-02-15T13:44:25;5.72;;;3.42;;
65174;SDS011;51761;42.126;24.752;2024-02-15T13:46:50;6.38;;;3.65;;
65174;SDS011;51761;42.126;24.752;2024-02-15T13:49:15;7.82;;;3.88;;
65174;SDS011;51761;42.126;24.752;2024-02-15T13:51:42;7.03;;;3.83;;
65174;SDS011;51761;42.126;24.752;2024-02-15T13:54:07;7.13;;;4.38;;
65174;SDS011;51761;42.126;24.752;2024-02-15T13:56:33;7.82;;;3.95;;
65174;SDS011;51761;42.126;24.752;2024-02-15T13:58:58;5.22;;;3.20;;
65174;SDS011;51761;42.126;24.752;2024-02-15T14:01:24;5.07;;;3.83;;
65174;SDS011;51761;42.126;24.752;2024-02-15T14:03:50;6.82;;;4.22;;
65174;SDS011;51761;42.126;24.752;2024-02-15T14:06:17;5.10;;;3.63;;
65174;SDS011;51761;42.126;24.752;2024-02-15T14:08:42;5.13;;;3.45;;
65174;SDS011;51761;42.126;24.752;2024-02-15T14:11:08;9.70;;;4.13;;
65174;SDS011;51761;42.126;24.752;2024-02-15T14:13:34;5.22;;;3.60;;
65174;SDS011;51761;42.126;24.752;2024-02-15T14:16:00;6.45;;;3.83;;
65174;SDS011;51761;42.126;24.752;2024-02-15T14:18:26;7.25;;;3.75;;
65174;SDS011;51761;42.126;24.752;2024-02-15T14:20:53;6.95;;;3.83;;
65174;SDS011;51761;42.126;24.752;2024-02-15T14:23:18;4.97;;;3.60;;
65174;SDS011;51761;42.126;24.752;2024-02-15T14:25:44;8.27;;;4.20;;
65174;SDS011;51761;42.126;24.752;2024-02-15T14:28:13;14.38;;;3.90;;
65174;SDS011;51761;42.126;24.752;2024-02-15T14:30:39;5.60;;;3.60;;
65174;SDS011;51761;42.126;24.752;2024-02-15T14:33:23;4.07;;;3.20;;
65174;SDS011;51761;42.126;24.752;2024-02-15T14:35:49;7.15;;;4.28;;
65174;SDS011;51761;42.126;24.752;2024-02-15T14:38:15;12.35;;;4.00;;
65174;SDS011;51761;42.126;24.752;2024-02-15T14:40:42;5.95;;;3.50;;
65174;SDS011;51761;42.126;24.752;2024-02-15T14:43:10;6.53;;;3.95;;
65174;SDS011;51761;42.126;24.752;2024-02-15T14:45:40;9.75;;;4.30;;
65174;SDS011;51761;42.126;24.752;2024-02-15T14:48:11;7.72;;;3.75;;
65174;SDS011;51761;42.126;24.752;2024-02-15T14:50:37;7.50;;;3.58;;
65174;SDS011;51761;42.126;24.752;2024-02-15T14:53:03;6.78;;;3.67;;
65174;SDS011;51761;42.126;24.752;2024-02-15T14:55:29;8.10;;;4.25;;